Time;durP1;ratioP1;P1;durP2;ratioP2;P2;SDS_P1;SDS_P2;PMS_P1;PMS_P2;Temp;Humidity;BMP_temperature;BMP_pressure;BME280_temperature;BME280_humidity;BME280_pressure;Samples;Min_cycle;Max_cycle;Signal;HPM_P1;HPM_P2
2022/07/15 00:01:57;;;;;;;;;;;23.60;67.30;;;;;;5008705;28;19914;-81
2022/07/15 00:04:23;;;;;;;;;;;23.50;68.10;;;;;;5016510;28;19913;-80
2022/07/15 00:06:48;;;;;;;;;;;23.40;68.50;;;;;;5011581;28;19913;-85
2022/07/15 00:09:14;;;;;;;;;;;23.50;68.70;;;;;;5005430;28;19917;-85
2022/07/15 00:11:40;;;;;;;;;;;23.40;69.00;;;;;;5016829;28;19913;-86
2022/07/15 00:14:05;;;;;;;;;;;23.40;69.30;;;;;;5019854;28;20622;-86
2022/07/15 00:16:31;;;;;;;;;;;23.20;69.70;;;;;;5022175;28;19921;-84
2022/07/15 00:18:57;;;;;;;;;;;23.30;69.90;;;;;;5016486;28;19921;-84
2022/07/15 00:21:22;;;;;;;;;;;23.20;70.50;;;;;;5008666;28;19963;-85
2022/07/15 00:23:48;;;;;;;;;;;23.20;70.70;;;;;;5014388;28;19917;-85
2022/07/15 00:26:13;;;;;;;;;;;23.30;70.00;;;;;;5019481;28;19927;-85
2022/07/15 00:28:39;;;;;;;;;;;23.20;70.00;;;;;;5012830;28;19912;-84
2022/07/15 00:31:05;;;;;;;;;;;23.00;71.20;;;;;;5019754;28;19913;-84
2022/07/15 00:33:30;;;;;;;;;;;23.00;71.80;;;;;;5024919;28;19924;-85
2022/07/15 00:35:56;;;;;;;;;;;23.10;71.00;;;;;;5020605;28;19925;-84
2022/07/15 00:38:21;;;;;;;;;;;23.10;71.40;;;;;;5012370;28;19919;-83
2022/07/15 00:40:48;;;;;;;;;;;23.30;69.70;;;;;;5015120;28;20065;-83
2022/07/15 00:43:16;;;;;;;;;;;23.10;71.40;;;;;;5022110;28;20007;-84
2022/07/15 00:45:42;;;;;;;;;;;23.10;71.20;;;;;;5021473;28;19913;-84
2022/07/15 00:48:07;;;;;;;;;;;23.70;68.00;;;;;;5025666;28;19958;-84
2022/07/15 00:50:33;;;;;;;;;;;23.70;67.30;;;;;;5021927;28;19913;-83
2022/07/15 00:53:01;;;;;;;;;;;23.70;67.50;;;;;;5021528;28;20367;-85
2022/07/15 00:55:29;;;;;;;;;;;23.50;68.30;;;;;;5016494;28;20402;-84
2022/07/15 00:57:56;;;;;;;;;;;23.40;68.30;;;;;;5022000;28;19920;-84
2022/07/15 01:00:22;;;;;;;;;;;23.50;68.30;;;;;;5020824;28;20031;-83
2022/07/15 01:02:50;;;;;;;;;;;23.40;68.10;;;;;;5015843;28;20011;-83
2022/07/15 01:05:18;;;;;;;;;;;23.30;68.90;;;;;;5021609;28;19936;-83
2022/07/15 01:07:45;;;;;;;;;;;23.40;68.50;;;;;;5022981;28;19920;-83
2022/07/15 01:10:10;;;;;;;;;;;23.30;69.20;;;;;;5017238;28;19913;-84
2022/07/15 01:12:40;;;;;;;;;;;23.10;69.90;;;;;;5032671;28;20031;-85
2022/07/15 01:15:07;;;;;;;;;;;23.20;69.70;;;;;;5007087;28;19917;-84
2022/07/15 01:17:32;;;;;;;;;;;23.20;69.50;;;;;;5024517;28;20295;-84
2022/07/15 01:19:58;;;;;;;;;;;23.10;69.70;;;;;;5014998;28;19932;-84
2022/07/15 01:22:23;;;;;;;;;;;23.20;69.70;;;;;;5016081;28;19991;-85
2022/07/15 01:24:49;;;;;;;;;;;23.10;69.70;;;;;;5021531;28;19913;-84
2022/07/15 01:27:15;;;;;;;;;;;23.10;69.70;;;;;;5014346;28;20465;-86
2022/07/15 01:29:40;;;;;;;;;;;23.10;69.80;;;;;;5019126;28;19909;-84
2022/07/15 01:32:06;;;;;;;;;;;23.00;70.00;;;;;;5021450;28;20141;-85
2022/07/15 01:34:31;;;;;;;;;;;23.20;69.80;;;;;;5005543;28;20027;-84
2022/07/15 01:36:57;;;;;;;;;;;23.00;70.30;;;;;;5023049;28;20415;-85
2022/07/15 01:39:22;;;;;;;;;;;23.00;70.30;;;;;;5015877;28;20392;-84
2022/07/15 01:41:48;;;;;;;;;;;23.00;70.40;;;;;;5020359;28;19920;-81
2022/07/15 01:44:16;;;;;;;;;;;22.90;70.50;;;;;;4998363;28;19917;-81
2022/07/15 01:46:42;;;;;;;;;;;22.90;70.60;;;;;;5023775;28;19963;-83
2022/07/15 01:49:25;;;;;;;;;;;22.80;71.40;;;;;;5004140;28;19948;-83
2022/07/15 01:51:55;;;;;;;;;;;22.80;71.10;;;;;;5017109;28;19912;-83
2022/07/15 01:54:21;;;;;;;;;;;22.70;71.40;;;;;;5033525;28;19917;-83
2022/07/15 01:56:47;;;;;;;;;;;22.70;72.10;;;;;;5002874;28;19928;-83
2022/07/15 01:59:13;;;;;;;;;;;22.60;72.50;;;;;;5019193;28;19917;-83
2022/07/15 02:01:38;;;;;;;;;;;22.60;72.50;;;;;;4996667;28;19916;-83
2022/07/15 02:04:04;;;;;;;;;;;22.50;73.60;;;;;;5015650;28;19913;-83
2022/07/15 02:06:30;;;;;;;;;;;22.40;73.20;;;;;;5013274;28;20469;-84
2022/07/15 02:08:56;;;;;;;;;;;22.40;73.20;;;;;;5018798;28;19913;-86
2022/07/15 02:11:22;;;;;;;;;;;22.40;73.30;;;;;;5020476;28;19924;-83
2022/07/15 02:13:47;;;;;;;;;;;22.30;73.90;;;;;;5002809;28;19920;-83
2022/07/15 02:16:13;;;;;;;;;;;22.20;74.80;;;;;;5024457;28;20414;-84
2022/07/15 02:18:38;;;;;;;;;;;22.20;74.70;;;;;;5021423;28;19913;-85
2022/07/15 02:21:04;;;;;;;;;;;22.10;75.80;;;;;;5021408;28;20391;-83
2022/07/15 02:23:29;;;;;;;;;;;22.00;75.80;;;;;;5015809;28;20487;-81
2022/07/15 02:25:55;;;;;;;;;;;22.10;75.10;;;;;;5016637;28;19913;-81
2022/07/15 02:28:21;;;;;;;;;;;22.10;75.00;;;;;;5022373;28;19925;-82
2022/07/15 02:30:46;;;;;;;;;;;22.10;74.90;;;;;;5016680;28;19913;-81
2022/07/15 02:33:13;;;;;;;;;;;22.10;74.20;;;;;;5017073;28;19971;-81
2022/07/15 02:35:39;;;;;;;;;;;22.10;73.80;;;;;;5017372;28;20003;-81
2022/07/15 02:38:05;;;;;;;;;;;22.00;74.00;;;;;;5009353;28;20007;-82
2022/07/15 02:40:30;;;;;;;;;;;22.10;73.10;;;;;;5016967;28;20717;-87
2022/07/15 02:42:57;;;;;;;;;;;22.00;73.90;;;;;;5017729;28;20414;-83
2022/07/15 02:45:24;;;;;;;;;;;22.00;73.20;;;;;;5016165;28;19923;-83
2022/07/15 02:47:50;;;;;;;;;;;22.00;73.60;;;;;;5021648;28;19935;-83
2022/07/15 02:50:16;;;;;;;;;;;21.90;73.20;;;;;;5022163;28;20380;-82
2022/07/15 02:52:42;;;;;;;;;;;21.90;73.50;;;;;;5011064;28;19917;-82
2022/07/15 02:55:08;;;;;;;;;;;21.90;72.00;;;;;;5013080;28;19974;-82
2022/07/15 02:57:34;;;;;;;;;;;21.90;72.40;;;;;;5011677;28;19913;-82
2022/07/15 02:59:59;;;;;;;;;;;22.00;71.20;;;;;;5009481;28;19923;-80
2022/07/15 03:02:26;;;;;;;;;;;21.90;71.70;;;;;;5013197;28;20737;-87
2022/07/15 03:04:52;;;;;;;;;;;22.00;70.50;;;;;;5014348;28;19914;-84
2022/07/15 03:07:17;;;;;;;;;;;22.00;70.30;;;;;;5016141;28;19928;-81
2022/07/15 03:09:43;;;;;;;;;;;22.10;70.40;;;;;;5029823;28;20453;-80
2022/07/15 03:12:09;;;;;;;;;;;22.10;69.80;;;;;;5016854;28;19912;-80
2022/07/15 03:14:34;;;;;;;;;;;22.10;70.10;;;;;;5020348;28;19913;-80
2022/07/15 03:17:00;;;;;;;;;;;22.00;70.30;;;;;;5018206;28;19944;-80
2022/07/15 03:19:25;;;;;;;;;;;22.10;70.10;;;;;;5022449;28;19919;-80
2022/07/15 03:21:51;;;;;;;;;;;21.90;70.90;;;;;;5019784;28;19913;-80
2022/07/15 03:24:17;;;;;;;;;;;21.70;71.90;;;;;;5005659;28;20486;-81
2022/07/15 03:26:42;;;;;;;;;;;21.80;71.30;;;;;;5020999;28;19927;-80
2022/07/15 03:29:09;;;;;;;;;;;21.80;71.20;;;;;;5020682;28;19920;-80
2022/07/15 03:31:34;;;;;;;;;;;21.80;71.40;;;;;;5000587;28;19919;-82
2022/07/15 03:34:00;;;;;;;;;;;21.60;73.10;;;;;;5014526;28;19917;-85
2022/07/15 03:36:25;;;;;;;;;;;21.40;74.00;;;;;;4999292;28;20375;-85
2022/07/15 03:38:51;;;;;;;;;;;21.40;74.00;;;;;;5013251;28;19913;-82
2022/07/15 03:41:18;;;;;;;;;;;21.40;74.10;;;;;;4991768;28;20003;-82
2022/07/15 03:43:43;;;;;;;;;;;21.30;74.60;;;;;;5011273;28;19913;-81
2022/07/15 03:46:09;;;;;;;;;;;21.20;75.30;;;;;;5012545;28;19913;-79
2022/07/15 03:48:34;;;;;;;;;;;21.30;75.40;;;;;;5016482;28;19966;-76
2022/07/15 03:51:00;;;;;;;;;;;21.10;76.00;;;;;;5019206;28;20478;-76
2022/07/15 03:53:25;;;;;;;;;;;21.10;76.60;;;;;;4995667;28;20439;-77
2022/07/15 03:55:51;;;;;;;;;;;21.10;77.00;;;;;;5013451;28;19925;-76
2022/07/15 03:58:17;;;;;;;;;;;21.00;77.50;;;;;;5010325;28;19919;-77
2022/07/15 04:00:42;;;;;;;;;;;21.00;78.20;;;;;;5008332;28;19913;-76
2022/07/15 04:03:08;;;;;;;;;;;20.90;78.10;;;;;;5006991;28;19917;-76
2022/07/15 04:05:34;;;;;;;;;;;21.00;78.30;;;;;;5007256;28;19956;-76
2022/07/15 04:08:00;;;;;;;;;;;21.10;77.70;;;;;;4994204;28;19945;-77
2022/07/15 04:10:25;;;;;;;;;;;21.00;78.30;;;;;;5019741;28;19936;-78
2022/07/15 04:12:51;;;;;;;;;;;21.00;78.60;;;;;;5017210;28;20287;-78
2022/07/15 04:15:16;;;;;;;;;;;21.00;78.70;;;;;;5008792;28;19921;-75
2022/07/15 04:17:42;;;;;;;;;;;20.90;79.50;;;;;;5029480;28;19959;-80
2022/07/15 04:20:08;;;;;;;;;;;21.00;79.60;;;;;;5012686;28;20357;-78
2022/07/15 04:22:44;;;;;;;;;;;20.90;79.90;;;;;;5012738;28;20034;-77
2022/07/15 04:25:10;;;;;;;;;;;20.90;80.10;;;;;;5010291;28;19966;-76
2022/07/15 04:27:35;;;;;;;;;;;20.70;80.90;;;;;;5017405;28;19917;-76
2022/07/15 04:30:01;;;;;;;;;;;20.80;80.90;;;;;;4997453;28;20421;-76
2022/07/15 04:32:27;;;;;;;;;;;20.80;81.00;;;;;;5009909;28;19914;-76
2022/07/15 04:34:52;;;;;;;;;;;20.70;82.20;;;;;;5016752;28;19921;-78
2022/07/15 04:37:18;;;;;;;;;;;20.80;82.00;;;;;;5006145;28;19928;-77
2022/07/15 04:39:43;;;;;;;;;;;20.80;82.00;;;;;;5021242;28;20302;-76
2022/07/15 04:42:09;;;;;;;;;;;21.20;80.00;;;;;;5008932;28;19917;-76
2022/07/15 04:44:34;;;;;;;;;;;21.70;78.40;;;;;;5002978;28;19921;-75
2022/07/15 04:47:02;;;;;;;;;;;21.80;78.10;;;;;;5019904;28;19913;-76
2022/07/15 04:52:13;;;;;;;;;;;22.30;75.40;;;;;;5018585;28;20032;-75
2022/07/15 04:54:38;;;;;;;;;;;22.60;73.70;;;;;;5021092;28;19943;-76
2022/07/15 04:57:04;;;;;;;;;;;22.60;73.60;;;;;;5021545;28;19921;-75
2022/07/15 04:59:29;;;;;;;;;;;22.80;72.90;;;;;;5019267;28;19917;-77
2022/07/15 05:01:55;;;;;;;;;;;22.90;73.10;;;;;;5021148;28;19913;-77
2022/07/15 05:04:21;;;;;;;;;;;23.30;72.00;;;;;;5023650;28;19967;-84
2022/07/15 05:06:47;;;;;;;;;;;23.90;70.30;;;;;;5010028;28;19913;-84
2022/07/15 05:09:12;;;;;;;;;;;24.60;68.10;;;;;;5010834;28;19940;-83
2022/07/15 05:11:38;;;;;;;;;;;24.90;67.10;;;;;;5002247;28;20306;-83
2022/07/15 05:14:03;;;;;;;;;;;24.70;66.80;;;;;;5015595;28;19916;-82
2022/07/15 05:16:30;;;;;;;;;;;24.40;67.40;;;;;;5017706;28;19921;-83
2022/07/15 05:18:56;;;;;;;;;;;23.90;68.50;;;;;;5024071;28;19920;-83
2022/07/15 05:21:21;;;;;;;;;;;23.40;70.40;;;;;;5008768;28;19912;-83
2022/07/15 05:23:47;;;;;;;;;;;23.70;69.60;;;;;;5021854;28;19936;-83
2022/07/15 05:26:12;;;;;;;;;;;23.10;71.00;;;;;;5010276;28;19913;-83
2022/07/15 05:28:39;;;;;;;;;;;23.00;71.10;;;;;;5018104;28;19970;-83
2022/07/15 05:31:07;;;;;;;;;;;23.40;70.40;;;;;;5017159;28;20370;-82
2022/07/15 05:33:32;;;;;;;;;;;23.40;70.70;;;;;;5011274;28;19920;-84
2022/07/15 05:35:58;;;;;;;;;;;24.70;67.00;;;;;;5007546;28;19929;-85
2022/07/15 05:38:24;;;;;;;;;;;25.60;65.80;;;;;;5033537;28;20019;-83
2022/07/15 05:40:50;;;;;;;;;;;25.10;66.20;;;;;;5022423;28;19913;-82
2022/07/15 05:43:15;;;;;;;;;;;24.30;67.00;;;;;;5017797;28;19954;-82
2022/07/15 05:45:41;;;;;;;;;;;24.40;67.30;;;;;;5019771;28;19917;-83
2022/07/15 05:48:07;;;;;;;;;;;24.10;67.60;;;;;;5020487;28;20386;-82
2022/07/15 05:50:33;;;;;;;;;;;24.90;66.20;;;;;;5025355;28;19913;-83
2022/07/15 05:52:59;;;;;;;;;;;26.00;63.80;;;;;;5024398;28;19919;-87
2022/07/15 05:55:24;;;;;;;;;;;25.40;64.10;;;;;;5023059;28;20463;-83
2022/07/15 05:57:50;;;;;;;;;;;24.90;64.90;;;;;;5015851;28;19913;-83
2022/07/15 06:00:16;;;;;;;;;;;25.10;65.30;;;;;;5019713;28;19909;-83
2022/07/15 06:02:41;;;;;;;;;;;25.10;65.30;;;;;;5018351;28;20036;-81
2022/07/15 06:05:07;;;;;;;;;;;25.70;65.20;;;;;;5024258;28;19913;-83
2022/07/15 06:07:33;;;;;;;;;;;25.40;64.00;;;;;;5024052;28;19913;-78
2022/07/15 06:09:59;;;;;;;;;;;25.60;63.90;;;;;;5022690;28;19924;-78
2022/07/15 06:12:24;;;;;;;;;;;26.10;63.30;;;;;;5021578;28;19919;-78
2022/07/15 06:14:50;;;;;;;;;;;26.60;62.30;;;;;;5023068;28;19919;-77
2022/07/15 06:17:15;;;;;;;;;;;27.20;61.20;;;;;;5023553;28;20380;-79
2022/07/15 06:19:41;;;;;;;;;;;26.80;61.10;;;;;;5006228;28;20672;-80
2022/07/15 06:22:07;;;;;;;;;;;27.40;60.80;;;;;;5021919;28;20304;-80
2022/07/15 06:24:32;;;;;;;;;;;27.10;61.90;;;;;;5023069;28;19913;-81
2022/07/15 06:26:58;;;;;;;;;;;27.90;58.90;;;;;;5023527;28;19932;-81
2022/07/15 06:29:23;;;;;;;;;;;27.80;59.30;;;;;;5022246;28;20019;-80
2022/07/15 06:31:49;;;;;;;;;;;27.60;59.50;;;;;;5020996;28;19913;-81
2022/07/15 06:34:15;;;;;;;;;;;27.50;59.80;;;;;;5016378;28;19917;-80
2022/07/15 06:36:41;;;;;;;;;;;28.40;58.10;;;;;;5019462;28;20041;-81
2022/07/15 06:39:07;;;;;;;;;;;28.90;56.50;;;;;;4998821;28;20016;-81
2022/07/15 06:41:33;;;;;;;;;;;29.70;56.30;;;;;;5022196;28;19959;-81
2022/07/15 06:43:59;;;;;;;;;;;28.50;56.40;;;;;;5016427;28;19924;-80
2022/07/15 06:46:25;;;;;;;;;;;26.80;59.80;;;;;;5019751;28;20459;-80
2022/07/15 06:48:50;;;;;;;;;;;27.10;60.20;;;;;;5021395;28;19992;-80
2022/07/15 06:51:16;;;;;;;;;;;27.00;59.20;;;;;;5021687;28;19964;-80
2022/07/15 06:53:41;;;;;;;;;;;26.90;60.30;;;;;;5020696;28;20002;-81
2022/07/15 06:56:07;;;;;;;;;;;27.90;59.70;;;;;;5017038;28;19928;-81
2022/07/15 06:58:33;;;;;;;;;;;27.00;60.20;;;;;;5019730;28;19909;-81
2022/07/15 07:01:01;;;;;;;;;;;26.20;60.70;;;;;;5012527;28;19967;-79
2022/07/15 07:03:27;;;;;;;;;;;26.30;61.60;;;;;;5016284;28;20519;-81
2022/07/15 07:05:53;;;;;;;;;;;26.40;61.00;;;;;;5017316;28;19919;-81
2022/07/15 07:08:18;;;;;;;;;;;26.40;61.60;;;;;;5015458;28;19952;-80
2022/07/15 07:10:44;;;;;;;;;;;26.40;60.80;;;;;;5008363;28;19917;-80
2022/07/15 07:13:09;;;;;;;;;;;26.70;61.40;;;;;;5014924;28;20658;-80
2022/07/15 07:15:35;;;;;;;;;;;26.90;61.40;;;;;;5016546;28;20530;-83
2022/07/15 07:18:01;;;;;;;;;;;27.20;60.30;;;;;;5017592;28;19939;-89
2022/07/15 07:20:27;;;;;;;;;;;27.90;59.50;;;;;;5019969;28;19919;-87
2022/07/15 07:22:52;;;;;;;;;;;28.10;58.10;;;;;;5026312;28;19913;-85
2022/07/15 07:25:18;;;;;;;;;;;28.00;58.50;;;;;;5023293;28;20400;-90
2022/07/15 07:27:43;;;;;;;;;;;27.70;59.40;;;;;;5018520;28;20478;-87
2022/07/15 07:30:09;;;;;;;;;;;28.60;57.60;;;;;;5002086;28;20715;-88
2022/07/15 07:32:35;;;;;;;;;;;28.30;57.50;;;;;;5024388;28;20313;-87
2022/07/15 07:35:00;;;;;;;;;;;27.60;58.90;;;;;;5023642;28;19921;-88
2022/07/15 07:37:26;;;;;;;;;;;28.60;58.60;;;;;;5024571;28;19917;-86
2022/07/15 07:39:52;;;;;;;;;;;28.50;58.20;;;;;;5022975;28;19915;-86
2022/07/15 07:42:18;;;;;;;;;;;28.70;56.50;;;;;;5023225;28;19917;-87
2022/07/15 07:44:44;;;;;;;;;;;28.70;57.30;;;;;;5002439;28;20050;-89
2022/07/15 07:47:09;;;;;;;;;;;29.50;57.00;;;;;;5022828;28;20033;-86
2022/07/15 07:49:35;;;;;;;;;;;29.80;55.30;;;;;;5023870;28;19909;-87
2022/07/15 07:52:01;;;;;;;;;;;29.70;54.60;;;;;;5021289;28;19925;-87
2022/07/15 07:54:26;;;;;;;;;;;29.60;55.00;;;;;;5023931;28;20035;-82
2022/07/15 07:56:52;;;;;;;;;;;30.20;54.70;;;;;;5021583;28;19921;-83
2022/07/15 07:59:17;;;;;;;;;;;29.80;56.30;;;;;;5022816;28;19913;-86
2022/07/15 08:01:43;;;;;;;;;;;29.60;55.20;;;;;;5021563;28;19967;-88
2022/07/15 08:04:09;;;;;;;;;;;30.60;53.90;;;;;;5021086;28;20011;-87
2022/07/15 08:06:34;;;;;;;;;;;31.00;53.70;;;;;;5010193;28;19959;-84
2022/07/15 08:09:00;;;;;;;;;;;32.00;52.10;;;;;;5020434;28;19920;-86
2022/07/15 08:11:26;;;;;;;;;;;31.70;52.60;;;;;;5019722;28;19924;-94
2022/07/15 08:13:52;;;;;;;;;;;31.50;52.90;;;;;;5008354;28;19909;-94
2022/07/15 08:16:17;;;;;;;;;;;31.10;53.10;;;;;;5010261;28;19983;-92
2022/07/15 08:18:43;;;;;;;;;;;31.70;52.60;;;;;;5006863;28;19996;-93
2022/07/15 08:21:09;;;;;;;;;;;31.50;53.30;;;;;;5012184;28;20639;-95
2022/07/15 08:23:35;;;;;;;;;;;31.80;52.60;;;;;;5010771;28;19913;-95
2022/07/15 08:26:00;;;;;;;;;;;32.00;52.10;;;;;;5020098;28;19913;-93
2022/07/15 08:28:26;;;;;;;;;;;32.80;51.30;;;;;;5018498;28;19913;-92
2022/07/15 08:30:52;;;;;;;;;;;33.40;50.20;;;;;;5014088;28;19909;-95
2022/07/15 08:33:18;;;;;;;;;;;33.50;50.50;;;;;;5001930;28;19919;-93
2022/07/15 08:35:43;;;;;;;;;;;34.60;50.50;;;;;;5010064;28;19917;-93
2022/07/15 08:38:09;;;;;;;;;;;34.50;49.20;;;;;;5016156;28;20020;-92
2022/07/15 08:40:36;;;;;;;;;;;34.20;49.80;;;;;;4997527;28;19909;-93
2022/07/15 08:43:02;;;;;;;;;;;34.90;48.50;;;;;;5031615;28;19905;-92
2022/07/15 08:45:28;;;;;;;;;;;34.40;48.40;;;;;;5021944;28;20826;-92
2022/07/15 08:47:54;;;;;;;;;;;34.80;48.50;;;;;;5020598;28;20394;-91
2022/07/15 08:50:20;;;;;;;;;;;35.50;48.10;;;;;;5014711;28;20029;-92
2022/07/15 08:52:46;;;;;;;;;;;36.00;47.50;;;;;;5008721;28;20003;-90
2022/07/15 08:55:13;;;;;;;;;;;35.10;47.90;;;;;;5000825;28;19909;-92
2022/07/15 08:57:38;;;;;;;;;;;35.20;49.50;;;;;;5024136;28;19923;-93
2022/07/15 09:00:09;;;;;;;;;;;35.60;47.50;;;;;;5048801;28;20073;-93
2022/07/15 09:02:37;;;;;;;;;;;36.50;46.90;;;;;;5007007;28;19959;-93
2022/07/15 09:05:18;;;;;;;;;;;37.80;46.00;;;;;;5034136;28;20291;-92
2022/07/15 09:07:53;;;;;;;;;;;38.60;44.80;;;;;;5024966;28;19913;-92
2022/07/15 09:10:20;;;;;;;;;;;38.70;44.70;;;;;;5030096;28;19905;-91
2022/07/15 09:12:48;;;;;;;;;;;38.60;45.00;;;;;;5032433;28;19909;-91
2022/07/15 09:15:29;;;;;;;;;;;38.60;44.30;;;;;;5023420;28;19928;-90
2022/07/15 09:18:08;;;;;;;;;;;39.30;45.10;;;;;;5022093;28;19905;-90
2022/07/15 09:20:35;;;;;;;;;;;39.40;42.70;;;;;;5014525;28;19905;-90
2022/07/15 09:23:01;;;;;;;;;;;40.70;42.40;;;;;;5014488;28;19906;-89
2022/07/15 09:25:28;;;;;;;;;;;39.90;43.10;;;;;;5032827;28;19911;-93
2022/07/15 09:27:53;;;;;;;;;;;40.70;42.40;;;;;;5011682;28;19913;-95
2022/07/15 09:36:06;;;;;;;;;;;39.40;43.60;;;;;;5018852;28;20312;-88
2022/07/15 09:38:50;;;;;;;;;;;40.20;42.00;;;;;;5000671;28;19933;-90
2022/07/15 09:41:20;;;;;;;;;;;41.70;42.30;;;;;;5020344;28;19966;-96
2022/07/15 09:43:47;;;;;;;;;;;41.10;41.30;;;;;;5018460;28;19952;-96
2022/07/15 09:46:13;;;;;;;;;;;41.40;40.90;;;;;;5013300;28;20359;-95
2022/07/15 09:48:40;;;;;;;;;;;41.10;41.10;;;;;;5010598;28;19961;-96
2022/07/15 09:51:05;;;;;;;;;;;40.30;41.10;;;;;;5017362;28;19924;-91
2022/07/15 09:53:32;;;;;;;;;;;41.30;41.50;;;;;;5031796;28;19909;-96
2022/07/15 09:55:58;;;;;;;;;;;41.30;41.00;;;;;;5013301;28;19921;-85
2022/07/15 09:58:24;;;;;;;;;;;40.70;40.40;;;;;;5006141;28;19916;-85
2022/07/15 10:00:52;;;;;;;;;;;42.10;41.50;;;;;;5016526;28;19921;-85
2022/07/15 10:03:18;;;;;;;;;;;41.00;41.50;;;;;;5003324;28;20697;-86
2022/07/15 10:05:44;;;;;;;;;;;41.10;40.60;;;;;;5016878;28;20008;-88
2022/07/15 10:08:11;;;;;;;;;;;40.70;41.30;;;;;;5018583;28;19927;-89
2022/07/15 10:10:39;;;;;;;;;;;42.00;41.20;;;;;;5007242;28;20000;-88
2022/07/15 10:13:10;;;;;;;;;;;40.70;40.80;;;;;;5002349;28;19999;-87
2022/07/15 10:16:03;;;;;;;;;;;40.50;41.20;;;;;;5022990;28;20260;-88
2022/07/15 10:18:48;;;;;;;;;;;41.30;40.30;;;;;;5006328;28;19921;-88
2022/07/15 10:21:13;;;;;;;;;;;42.00;40.80;;;;;;5022609;28;19991;-87
2022/07/15 10:23:41;;;;;;;;;;;42.50;42.90;;;;;;5024876;28;20038;-85
2022/07/15 10:26:21;;;;;;;;;;;41.30;40.00;;;;;;5014104;28;20504;-95
2022/07/15 10:28:52;;;;;;;;;;;42.10;42.50;;;;;;5012584;28;19913;-88
2022/07/15 10:31:20;;;;;;;;;;;42.90;42.00;;;;;;4995936;28;19912;-88
2022/07/15 10:34:04;;;;;;;;;;;43.20;41.10;;;;;;4996170;28;19917;-90
2022/07/15 10:36:52;;;;;;;;;;;42.60;40.20;;;;;;5009223;28;19923;-90
2022/07/15 10:39:19;;;;;;;;;;;42.10;41.50;;;;;;5008864;28;19920;-88
2022/07/15 10:41:50;;;;;;;;;;;40.30;40.20;;;;;;5005436;28;19909;-94
2022/07/15 10:44:16;;;;;;;;;;;38.90;41.40;;;;;;5033469;28;19996;-89
2022/07/15 10:46:42;;;;;;;;;;;38.10;43.10;;;;;;5033003;28;20016;-95
2022/07/15 10:49:08;;;;;;;;;;;37.30;42.20;;;;;;5021165;28;19977;-96
2022/07/15 10:51:37;;;;;;;;;;;37.20;44.90;;;;;;5000130;28;20308;-95
2022/07/15 10:54:07;;;;;;;;;;;36.70;43.50;;;;;;5043026;28;19920;-96
2022/07/15 10:56:34;;;;;;;;;;;36.50;43.20;;;;;;5012901;28;19924;-95
2022/07/15 10:59:14;;;;;;;;;;;36.10;44.90;;;;;;5014606;28;19909;-95
2022/07/15 11:01:41;;;;;;;;;;;35.60;44.40;;;;;;5029286;28;19959;-96
2022/07/15 11:04:15;;;;;;;;;;;35.50;44.80;;;;;;5011267;28;19920;-96
2022/07/15 11:06:59;;;;;;;;;;;35.40;46.00;;;;;;5008669;28;19916;-95
2022/07/15 11:09:43;;;;;;;;;;;35.00;46.00;;;;;;5026855;28;19913;-96
2022/07/15 11:12:09;;;;;;;;;;;35.10;46.10;;;;;;5022226;28;19913;-96
2022/07/15 11:14:53;;;;;;;;;;;35.20;44.70;;;;;;5021520;28;19916;-96
2022/07/15 11:17:29;;;;;;;;;;;34.80;40.70;;;;;;5022977;28;19924;-95
2022/07/15 11:19:57;;;;;;;;;;;34.40;40.10;;;;;;5022365;28;20392;-85
2022/07/15 11:22:23;;;;;;;;;;;34.30;41.30;;;;;;5020252;28;19960;-84
2022/07/15 11:24:49;;;;;;;;;;;34.60;41.80;;;;;;5015354;28;19913;-87
2022/07/15 11:27:15;;;;;;;;;;;34.50;43.80;;;;;;5015719;28;20288;-86
2022/07/15 11:29:49;;;;;;;;;;;34.30;40.50;;;;;;5017756;28;19913;-86
2022/07/15 11:32:15;;;;;;;;;;;34.40;43.20;;;;;;5020906;28;20627;-87
2022/07/15 11:34:42;;;;;;;;;;;34.10;41.50;;;;;;4999478;28;19934;-91
2022/07/15 11:37:10;;;;;;;;;;;34.00;44.00;;;;;;5018725;28;19921;-88
2022/07/15 11:39:36;;;;;;;;;;;33.80;44.30;;;;;;5020598;28;19913;-87
2022/07/15 11:44:49;;;;;;;;;;;33.80;44.60;;;;;;5018115;28;20379;-84
2022/07/15 11:47:16;;;;;;;;;;;33.60;44.20;;;;;;5004436;28;19909;-83
2022/07/15 11:49:43;;;;;;;;;;;33.50;45.50;;;;;;5016849;28;19920;-82
2022/07/15 11:52:09;;;;;;;;;;;33.00;39.60;;;;;;5022893;28;19917;-90
2022/07/15 11:54:36;;;;;;;;;;;33.40;40.10;;;;;;5006687;28;19917;-90
2022/07/15 11:57:03;;;;;;;;;;;33.50;40.40;;;;;;5020850;28;20020;-89
2022/07/15 11:59:29;;;;;;;;;;;33.30;39.50;;;;;;5014441;28;19924;-88
2022/07/15 12:02:05;;;;;;;;;;;33.30;42.20;;;;;;5007755;28;20301;-91
2022/07/15 12:04:31;;;;;;;;;;;33.30;44.20;;;;;;5016959;28;19909;-88
2022/07/15 12:06:58;;;;;;;;;;;33.10;41.60;;;;;;5002132;28;19923;-86
2022/07/15 12:09:24;;;;;;;;;;;32.90;40.30;;;;;;4996465;28;19975;-88
2022/07/15 12:11:50;;;;;;;;;;;32.90;39.10;;;;;;5004908;28;20280;-89
2022/07/15 12:14:22;;;;;;;;;;;32.80;38.10;;;;;;5026276;28;19972;-88
2022/07/15 12:16:49;;;;;;;;;;;32.50;37.50;;;;;;5019485;28;20040;-90
2022/07/15 12:19:15;;;;;;;;;;;32.60;38.90;;;;;;5019682;28;20005;-90
2022/07/15 12:21:41;;;;;;;;;;;32.60;39.60;;;;;;5008357;28;19972;-90
2022/07/15 12:24:11;;;;;;;;;;;32.70;40.00;;;;;;5006745;28;19915;-90
2022/07/15 12:26:41;;;;;;;;;;;32.70;39.20;;;;;;5026328;28;19921;-94
2022/07/15 12:29:08;;;;;;;;;;;32.80;42.30;;;;;;5029355;28;19915;-94
2022/07/15 12:31:34;;;;;;;;;;;32.90;42.70;;;;;;5007780;28;19967;-93
2022/07/15 12:34:01;;;;;;;;;;;32.80;43.30;;;;;;5005764;28;19921;-93
2022/07/15 12:36:28;;;;;;;;;;;32.70;41.30;;;;;;5026276;28;19928;-88
2022/07/15 12:39:07;;;;;;;;;;;32.50;39.80;;;;;;5020747;28;20403;-95
2022/07/15 12:41:33;;;;;;;;;;;32.50;42.30;;;;;;5024672;28;19945;-94
2022/07/15 12:44:00;;;;;;;;;;;32.70;44.70;;;;;;5011142;28;20371;-95
2022/07/15 12:46:44;;;;;;;;;;;32.70;42.60;;;;;;5024707;28;19905;-94
2022/07/15 12:49:09;;;;;;;;;;;32.70;44.10;;;;;;5023749;28;19908;-93
2022/07/15 12:51:35;;;;;;;;;;;32.80;43.40;;;;;;5028820;28;19980;-96
2022/07/15 12:54:05;;;;;;;;;;;32.80;44.50;;;;;;5028164;28;19942;-91
2022/07/15 12:56:31;;;;;;;;;;;32.80;44.70;;;;;;5006542;28;19967;-94
2022/07/15 12:58:56;;;;;;;;;;;32.80;41.70;;;;;;5018244;28;19960;-92
2022/07/15 13:01:22;;;;;;;;;;;32.60;42.60;;;;;;5011500;28;19913;-95
2022/07/15 13:03:47;;;;;;;;;;;32.60;41.80;;;;;;5023933;28;20057;-94
2022/07/15 13:06:14;;;;;;;;;;;32.70;42.10;;;;;;5009577;28;19932;-94
2022/07/15 13:08:40;;;;;;;;;;;32.70;44.80;;;;;;5006736;28;19916;-94
2022/07/15 13:11:07;;;;;;;;;;;32.60;43.80;;;;;;5028403;28;19952;-95
2022/07/15 13:13:34;;;;;;;;;;;32.50;46.90;;;;;;5022899;28;19909;-94
2022/07/15 13:16:01;;;;;;;;;;;32.30;43.20;;;;;;5016228;28;19917;-93
2022/07/15 13:18:27;;;;;;;;;;;32.20;42.30;;;;;;5011863;28;20003;-94
2022/07/15 13:20:53;;;;;;;;;;;32.10;42.20;;;;;;5010857;28;20017;-96
2022/07/15 13:23:19;;;;;;;;;;;32.40;44.20;;;;;;5028680;28;19917;-94
2022/07/15 13:25:45;;;;;;;;;;;32.30;41.40;;;;;;5028122;28;19920;-95
2022/07/15 13:28:11;;;;;;;;;;;32.20;42.30;;;;;;5013732;28;19917;-94
2022/07/15 13:30:37;;;;;;;;;;;32.10;42.00;;;;;;5010599;28;20066;-94
2022/07/15 13:33:03;;;;;;;;;;;31.90;40.30;;;;;;5024878;28;19913;-93
2022/07/15 13:35:29;;;;;;;;;;;32.00;40.90;;;;;;5020364;28;20388;-91
2022/07/15 13:37:54;;;;;;;;;;;32.00;42.70;;;;;;5019556;28;19919;-95
2022/07/15 13:40:20;;;;;;;;;;;32.10;45.00;;;;;;4998680;28;19913;-94
2022/07/15 13:42:46;;;;;;;;;;;32.10;43.70;;;;;;5008887;28;19913;-93
2022/07/15 13:45:13;;;;;;;;;;;32.20;44.60;;;;;;5014832;28;19967;-94
2022/07/15 13:47:39;;;;;;;;;;;32.00;43.40;;;;;;5016624;28;19920;-95
2022/07/15 13:52:50;;;;;;;;;;;31.80;39.90;;;;;;5033199;28;19920;-94
2022/07/15 13:55:17;;;;;;;;;;;31.80;40.80;;;;;;5021028;28;19962;-93
2022/07/15 13:57:42;;;;;;;;;;;31.70;41.30;;;;;;5014017;28;19916;-96
2022/07/15 14:00:11;;;;;;;;;;;31.90;40.70;;;;;;5008592;28;19921;-89
2022/07/15 14:02:37;;;;;;;;;;;31.90;39.90;;;;;;5001989;28;19912;-91
2022/07/15 14:05:03;;;;;;;;;;;31.70;42.20;;;;;;5012826;28;19923;-89
2022/07/15 14:07:29;;;;;;;;;;;31.70;41.50;;;;;;5041845;28;19917;-84
2022/07/15 14:09:54;;;;;;;;;;;31.80;41.80;;;;;;5022068;28;19921;-85
2022/07/15 14:12:20;;;;;;;;;;;31.70;40.20;;;;;;5019187;28;20424;-84
2022/07/15 14:14:45;;;;;;;;;;;31.60;43.00;;;;;;5021326;28;19939;-84
2022/07/15 14:17:11;;;;;;;;;;;31.80;39.20;;;;;;5017968;28;20730;-84
2022/07/15 14:19:36;;;;;;;;;;;31.70;42.70;;;;;;5014458;28;19935;-84
2022/07/15 14:22:02;;;;;;;;;;;31.60;40.80;;;;;;5020398;28;19913;-84
2022/07/15 14:24:27;;;;;;;;;;;31.50;40.70;;;;;;5013344;28;20106;-85
2022/07/15 14:26:53;;;;;;;;;;;31.40;42.00;;;;;;5013041;28;20288;-85
2022/07/15 14:29:19;;;;;;;;;;;31.40;42.10;;;;;;5009569;28;20297;-84